Bexley, United Kingdom
Current Conditions -  °F | °C
As of 6:50 PM on Friday 28 Nov 2014 (Local Time) from EGLC Reporting Station
Clear Clear  
Wind Chill: 52°   Ceiling: Unl
Heat Index: 52°   Visibility: 6mi
Dew Point: 48°   Wind: 12mph
Humidity: 88%   Direction: 80°E
Pressure: 29.68"   Gusts: NA
Location:  51.44°N, 0.15°E
Report Text: EGLC 281850Z 08010KT CAVOK 11/09 Q1005
Loading
Personal Weather Stations






























Interactive Weather Map New forecast layout! Learn more

10-Day Weather Forecast

Advertisements
Track Severe Weather on mobile